createdAt,value
2022-08-09T00:00:17.676Z,68
2022-08-09T00:01:33.971Z,68.1
2022-08-09T00:02:50.266Z,68.4
2022-08-09T00:04:06.554Z,69
2022-08-09T00:05:22.844Z,69.3
2022-08-09T00:06:39.151Z,68.9
2022-08-09T00:07:55.440Z,68.6
2022-08-09T00:09:11.725Z,69.8
2022-08-09T00:10:28.017Z,69.3
2022-08-09T00:11:44.316Z,69.9
2022-08-09T00:13:00.610Z,69
2022-08-09T00:14:15.925Z,69.1
2022-08-09T00:15:32.218Z,69.4
2022-08-09T00:16:48.500Z,70.3
2022-08-09T00:18:04.807Z,70.2
2022-08-09T00:19:21.091Z,70.6
2022-08-09T00:20:37.379Z,72.6
2022-08-09T00:21:53.711Z,75.3
2022-08-09T00:23:09.990Z,76.6
2022-08-09T00:24:26.263Z,77.9
2022-08-09T00:25:42.566Z,78.1
2022-08-09T00:26:58.849Z,78.5
2022-08-09T00:28:15.166Z,78.6
2022-08-09T00:29:31.446Z,78.6
2022-08-09T00:30:46.764Z,78.7
2022-08-09T00:32:03.031Z,78.5
2022-08-09T00:33:19.325Z,78.3
2022-08-09T00:34:35.617Z,78.1
2022-08-09T00:35:51.923Z,77.6
2022-08-09T00:37:08.233Z,77.8
2022-08-09T00:38:24.534Z,77.6
2022-08-09T00:39:40.801Z,77.5
2022-08-09T00:40:57.090Z,77.4
2022-08-09T00:42:13.378Z,77.3
2022-08-09T00:43:29.675Z,77.3
2022-08-09T00:44:45.970Z,77.6
2022-08-09T00:46:02.272Z,77.9
2022-08-09T00:47:17.593Z,77.8
2022-08-09T00:48:33.862Z,78
2022-08-09T00:49:50.170Z,77.7
2022-08-09T00:51:06.473Z,77.5
2022-08-09T00:52:22.745Z,77.5
2022-08-09T00:53:39.067Z,77.6
2022-08-09T00:54:55.325Z,77.6
2022-08-09T00:56:11.619Z,78.2
2022-08-09T00:57:27.928Z,78.4
2022-08-09T00:58:44.216Z,78.5
2022-08-09T01:00:00.531Z,78.8
2022-08-09T01:01:16.794Z,79
2022-08-09T01:02:33.086Z,78.9
2022-08-09T01:03:48.430Z,78.7
2022-08-09T01:05:04.687Z,78.7
2022-08-09T01:06:21.014Z,78.8
2022-08-09T01:07:37.285Z,79.2
2022-08-09T01:08:53.575Z,80.3
2022-08-09T01:10:09.862Z,82.7
2022-08-09T01:11:26.159Z,83.7
2022-08-09T01:12:42.442Z,83.8
2022-08-09T01:13:58.748Z,83.9
2022-08-09T01:15:15.030Z,83.5
2022-08-09T01:16:31.326Z,83.6
2022-08-09T01:17:47.643Z,83.4
2022-08-09T01:19:03.936Z,82.9
2022-08-09T01:20:19.223Z,83
2022-08-09T01:21:35.513Z,83.1
2022-08-09T01:22:51.800Z,83
2022-08-09T01:24:08.095Z,83
2022-08-09T01:25:24.391Z,82.7
2022-08-09T01:26:40.680Z,83.1
2022-08-09T01:27:56.992Z,83.2
2022-08-09T01:29:13.298Z,83.1
2022-08-09T01:30:29.557Z,83.3
2022-08-09T01:31:45.855Z,83
2022-08-09T01:33:02.157Z,82.6
2022-08-09T01:34:18.455Z,82.7
2022-08-09T01:35:34.740Z,82.7
2022-08-09T01:36:50.056Z,82.2
2022-08-09T01:38:06.342Z,82.6
2022-08-09T01:39:22.633Z,83.3
2022-08-09T01:40:38.923Z,83.4
2022-08-09T01:41:55.245Z,83.3
2022-08-09T01:43:11.516Z,84
2022-08-09T01:44:27.801Z,84.8
2022-08-09T01:45:44.094Z,85.4
2022-08-09T01:47:00.382Z,85.5
2022-08-09T01:48:16.679Z,85.7
2022-08-09T01:49:32.980Z,85.8
2022-08-09T01:50:49.272Z,85.8
2022-08-09T01:52:05.580Z,85.7
2022-08-09T01:53:20.879Z,85.3
2022-08-09T01:54:37.189Z,85.2
2022-08-09T01:55:53.454Z,84.8
2022-08-09T01:57:09.773Z,84.9
2022-08-09T01:58:26.043Z,84.8
2022-08-09T01:59:42.352Z,84.7
2022-08-09T02:00:58.634Z,84.6
2022-08-09T02:02:14.930Z,84.4
2022-08-09T02:03:31.233Z,84.4
2022-08-09T02:04:47.509Z,84.6
2022-08-09T02:06:03.802Z,84.6
2022-08-09T02:07:20.110Z,84.5
2022-08-09T02:08:36.411Z,84.2
2022-08-09T02:09:51.685Z,84.1
2022-08-09T02:11:07.979Z,83.7
2022-08-09T02:12:24.289Z,84.4
2022-08-09T02:13:40.572Z,84.5
2022-08-09T02:14:56.867Z,84.8
2022-08-09T02:16:13.174Z,84.6
2022-08-09T02:17:29.453Z,84.3
2022-08-09T02:18:45.767Z,84.3
2022-08-09T02:20:02.065Z,83.3
2022-08-09T02:21:18.334Z,83.9
2022-08-09T02:22:34.641Z,83.2
2022-08-09T02:23:50.932Z,82.9
2022-08-09T02:25:07.210Z,83
2022-08-09T02:26:22.532Z,82.7
2022-08-09T02:27:38.809Z,82.7
2022-08-09T02:28:55.100Z,82.9
2022-08-09T02:30:11.394Z,82.9
2022-08-09T02:31:27.691Z,83.6
2022-08-09T02:32:43.970Z,84
2022-08-09T02:34:00.274Z,84
2022-08-09T02:35:16.565Z,83.9
2022-08-09T02:36:32.862Z,83.5
2022-08-09T02:37:49.171Z,84.2
2022-08-09T02:39:05.440Z,84.2
2022-08-09T02:40:21.744Z,84.2
2022-08-09T02:41:38.049Z,84
2022-08-09T02:42:53.356Z,83.8
2022-08-09T02:44:09.625Z,83.5
2022-08-09T02:45:25.913Z,82.2
2022-08-09T02:46:42.206Z,81.4
2022-08-09T02:47:58.498Z,80.2
2022-08-09T02:49:14.825Z,81.8
2022-08-09T02:50:31.103Z,82.4
2022-08-09T02:51:47.390Z,83
2022-08-09T02:53:03.670Z,82.5
2022-08-09T02:54:19.961Z,81.6
2022-08-09T02:55:36.266Z,81.2
2022-08-09T02:56:52.553Z,81.8
2022-08-09T02:58:08.850Z,81.4
2022-08-09T02:59:24.156Z,80.2
2022-08-09T03:00:40.449Z,80.2
2022-08-09T03:01:56.748Z,80.8
2022-08-09T03:03:13.036Z,81.3
2022-08-09T03:04:29.351Z,81.5
2022-08-09T03:05:45.624Z,80.8
2022-08-09T03:07:01.921Z,81.6
2022-08-09T03:08:18.200Z,81.1
2022-08-09T03:09:34.507Z,81
2022-08-09T03:10:50.790Z,81.8
2022-08-09T03:12:07.092Z,81.3
2022-08-09T03:13:23.334Z,81.7
2022-08-09T03:14:39.627Z,82.3
2022-08-09T03:15:54.946Z,82.6
2022-08-09T03:17:11.200Z,82.5
2022-08-09T03:18:27.422Z,82.4
2022-08-09T03:19:43.715Z,82.6
2022-08-09T03:21:00.030Z,82.4
2022-08-09T03:22:16.296Z,82.2
2022-08-09T03:23:32.546Z,82.3
2022-08-09T03:24:48.833Z,83
2022-08-09T03:26:05.119Z,83.6
2022-08-09T03:27:21.320Z,83.7
2022-08-09T03:28:37.569Z,83.6
2022-08-09T03:29:53.811Z,83.8
2022-08-09T03:31:10.051Z,83.3
2022-08-09T03:32:25.291Z,83.9
2022-08-09T03:33:41.535Z,84.3
2022-08-09T03:34:57.794Z,83.8
2022-08-09T03:36:14.013Z,83.4
2022-08-09T03:37:30.250Z,83.3
2022-08-09T03:38:46.507Z,82.9
2022-08-09T03:40:02.735Z,82.6
2022-08-09T03:41:18.000Z,82
2022-08-09T03:42:35.202Z,82.2
2022-08-09T03:43:51.444Z,82.2
2022-08-09T03:45:07.693Z,81.7
2022-08-09T03:46:23.927Z,81.3
2022-08-09T03:47:40.162Z,81.9
2022-08-09T03:48:55.409Z,82.3
2022-08-09T03:50:11.650Z,82.5
2022-08-09T03:51:27.911Z,82.1
2022-08-09T03:52:44.136Z,81.9
2022-08-09T03:54:00.392Z,82.1
2022-08-09T03:55:16.628Z,82.3
2022-08-09T03:56:32.855Z,81.4
2022-08-09T03:57:49.078Z,81.3
2022-08-09T03:59:05.349Z,81
2022-08-09T04:00:21.570Z,81.2
2022-08-09T04:01:37.808Z,81.5
2022-08-09T04:02:54.051Z,81
2022-08-09T04:04:10.274Z,81.4
2022-08-09T04:05:25.554Z,81.2
2022-08-09T04:06:41.766Z,81.5
2022-08-09T04:07:58.020Z,81.8
2022-08-09T04:09:14.242Z,82.1
2022-08-09T04:10:30.499Z,82.4
2022-08-09T04:11:46.720Z,82.7
2022-08-09T04:13:02.016Z,82.9
2022-08-09T04:14:18.219Z,82.7
2022-08-09T04:15:34.473Z,82.6
2022-08-09T04:16:50.724Z,82.7
2022-08-09T04:18:06.949Z,82.9
2022-08-09T04:19:23.192Z,82.8
2022-08-09T04:20:39.422Z,82.5
2022-08-09T04:21:55.671Z,82.6
2022-08-09T04:23:11.892Z,82.6
2022-08-09T04:24:28.138Z,82.7
2022-08-09T04:25:44.376Z,82.8
2022-08-09T04:27:00.635Z,82.8
2022-08-09T04:28:16.888Z,82.8
2022-08-09T04:29:32.141Z,82.6
2022-08-09T04:30:48.372Z,82.6
2022-08-09T04:32:04.609Z,82.5
2022-08-09T04:33:20.834Z,82.7
2022-08-09T04:34:37.070Z,82.4
2022-08-09T04:35:53.295Z,82
2022-08-09T04:37:09.569Z,82
2022-08-09T04:38:25.798Z,81.7
2022-08-09T04:39:42.039Z,81.3
2022-08-09T04:40:58.253Z,81.8
2022-08-09T04:42:14.519Z,82.2
2022-08-09T04:43:30.725Z,82.8
2022-08-09T04:44:46.964Z,82.6
2022-08-09T04:46:02.231Z,83
2022-08-09T04:47:18.471Z,82.8
2022-08-09T04:48:34.723Z,82.6
2022-08-09T04:49:50.944Z,83.2
2022-08-09T04:51:07.213Z,83
2022-08-09T04:52:23.428Z,82.6
2022-08-09T04:53:39.658Z,83.1
2022-08-09T04:54:55.889Z,81.3
2022-08-09T04:56:12.127Z,80.7
2022-08-09T04:57:28.366Z,80.7
2022-08-09T04:58:44.637Z,80.5
2022-08-09T05:00:00.873Z,80.3
2022-08-09T05:01:17.113Z,80.3
2022-08-09T05:02:32.353Z,80.2
2022-08-09T05:03:48.612Z,80.4
2022-08-09T05:05:04.858Z,80.2
2022-08-09T05:06:21.091Z,81
2022-08-09T05:07:37.303Z,80.2
2022-08-09T05:08:53.544Z,79.9
2022-08-09T05:10:09.771Z,80.2
2022-08-09T05:11:26.012Z,80.6
2022-08-09T05:12:42.252Z,81.9
2022-08-09T05:13:58.499Z,80.9
2022-08-09T05:15:14.733Z,80.6
2022-08-09T05:16:30.972Z,80.3
2022-08-09T05:17:47.235Z,79.8
2022-08-09T05:19:02.462Z,79.7
2022-08-09T05:20:18.732Z,79.8
2022-08-09T05:21:34.947Z,79.2
2022-08-09T05:22:51.215Z,78.8
2022-08-09T05:24:07.444Z,80
2022-08-09T05:25:23.669Z,80.7
2022-08-09T05:26:39.927Z,80
2022-08-09T05:27:56.146Z,79.8
2022-08-09T05:29:12.370Z,80
2022-08-09T05:30:28.619Z,80.7
2022-08-09T05:31:44.849Z,80.7
2022-08-09T05:33:01.128Z,79.6
2022-08-09T05:34:17.342Z,78.7
2022-08-09T05:35:32.584Z,78
2022-08-09T05:36:48.830Z,76.7
2022-08-09T05:38:05.061Z,78.3
2022-08-09T05:39:21.311Z,77.4
2022-08-09T05:40:37.572Z,74.8
2022-08-09T05:41:53.778Z,74.3
2022-08-09T05:43:10.044Z,74
2022-08-09T05:44:26.263Z,73.7
2022-08-09T05:45:42.501Z,73.8
2022-08-09T05:46:58.734Z,73.8
2022-08-09T05:48:14.970Z,73.8
2022-08-09T05:49:31.204Z,73.8
2022-08-09T05:50:47.449Z,73.3
2022-08-09T05:52:02.725Z,74.8
2022-08-09T05:53:18.940Z,75.5
2022-08-09T05:54:35.195Z,74.9
2022-08-09T05:55:51.445Z,75
2022-08-09T05:57:07.651Z,73.9
2022-08-09T05:58:23.900Z,75.5
2022-08-09T05:59:40.142Z,74.2
2022-08-09T06:00:56.376Z,73.8
2022-08-09T06:02:12.616Z,72.7
2022-08-09T06:03:28.863Z,73.5
2022-08-09T06:04:45.087Z,71.7
2022-08-09T06:06:01.321Z,71.9
2022-08-09T06:07:17.574Z,71.8
2022-08-09T06:08:32.851Z,72.2
2022-08-09T06:09:49.061Z,71.8
2022-08-09T06:11:05.301Z,72.1
2022-08-09T06:12:21.534Z,72.4
2022-08-09T06:13:37.774Z,72.4
2022-08-09T06:14:54.012Z,72.5
2022-08-09T06:16:10.252Z,70.7
2022-08-09T06:17:26.495Z,70.9
2022-08-09T06:18:42.760Z,71.3
2022-08-09T06:19:58.979Z,71.4
2022-08-09T06:21:15.242Z,72
2022-08-09T06:22:31.460Z,70.5
2022-08-09T06:23:47.689Z,70.9
2022-08-09T06:25:02.957Z,71.2
2022-08-09T06:26:19.185Z,69.6
2022-08-09T06:27:35.429Z,70.2
2022-08-09T06:28:51.661Z,70.1
2022-08-09T06:30:07.934Z,70.7
2022-08-09T06:31:24.136Z,70.4
2022-08-09T06:32:40.385Z,70.1
2022-08-09T06:33:56.618Z,70.3
2022-08-09T06:35:12.855Z,70.3
2022-08-09T06:36:29.106Z,70.3
2022-08-09T06:37:45.343Z,69.8
2022-08-09T06:39:01.566Z,70.3
2022-08-09T06:40:17.816Z,70.4
2022-08-09T06:41:33.071Z,70
2022-08-09T06:42:49.318Z,68.4
2022-08-09T06:44:05.553Z,69.8
2022-08-09T06:45:21.790Z,69.7
2022-08-09T06:46:38.034Z,69.1
2022-08-09T06:47:54.275Z,70.7
2022-08-09T06:49:10.507Z,69.9
2022-08-09T06:50:26.750Z,70
2022-08-09T06:51:42.985Z,70
2022-08-09T06:52:59.222Z,69.4
2022-08-09T06:54:15.451Z,69.5
2022-08-09T06:55:31.706Z,69.4
2022-08-09T06:56:47.944Z,69.3
2022-08-09T06:58:03.185Z,67.6
2022-08-09T06:59:19.464Z,67.8
2022-08-09T07:00:35.676Z,67.8
2022-08-09T07:01:51.910Z,68.1
2022-08-09T07:03:08.140Z,68.1
2022-08-09T07:04:24.380Z,67.4
2022-08-09T07:05:40.617Z,68.2
2022-08-09T07:06:56.865Z,67
2022-08-09T07:08:13.137Z,65.9
2022-08-09T07:09:29.368Z,65.9
2022-08-09T07:10:45.593Z,65.4
2022-08-09T07:12:01.814Z,63.9
2022-08-09T07:13:18.061Z,63.9
2022-08-09T07:14:33.323Z,63.9
2022-08-09T07:15:49.564Z,64.5
2022-08-09T07:17:05.801Z,64.5
2022-08-09T07:18:22.040Z,63.6
2022-08-09T07:19:38.275Z,62.5
2022-08-09T07:20:54.519Z,60.4
2022-08-09T07:22:10.749Z,59.8
2022-08-09T07:23:26.981Z,60.8
2022-08-09T07:24:43.222Z,61.9
2022-08-09T07:25:59.468Z,62.1
2022-08-09T07:27:15.704Z,61.3
2022-08-09T07:28:31.957Z,61.3
2022-08-09T07:29:48.212Z,61.5
2022-08-09T07:31:03.470Z,60.6
2022-08-09T07:32:19.685Z,60.3
2022-08-09T07:33:35.925Z,59.6
2022-08-09T07:34:52.155Z,58.5
2022-08-09T07:36:08.390Z,58.3
2022-08-09T07:37:24.645Z,58.6
2022-08-09T07:38:40.911Z,58.3
2022-08-09T07:39:57.126Z,58.8
2022-08-09T07:41:13.360Z,59.1
2022-08-09T07:42:29.592Z,58.4
2022-08-09T07:43:45.824Z,58
2022-08-09T07:45:02.079Z,57.7
2022-08-09T07:46:18.305Z,57.7
2022-08-09T07:47:33.565Z,57
2022-08-09T07:48:49.807Z,57
2022-08-09T07:50:06.074Z,57.2
2022-08-09T07:51:22.276Z,56.2
2022-08-09T07:52:38.535Z,56.2
2022-08-09T07:53:54.795Z,56.7
2022-08-09T07:55:10.999Z,57.2
2022-08-09T07:56:27.237Z,56.5
2022-08-09T07:57:43.481Z,55.9
2022-08-09T07:58:59.716Z,55.8
2022-08-09T08:00:15.965Z,55.7
2022-08-09T08:01:32.207Z,55.2
2022-08-09T08:02:48.470Z,55.4
2022-08-09T08:04:03.686Z,55.6
2022-08-09T08:05:19.934Z,55.9
2022-08-09T08:06:36.176Z,56.7
2022-08-09T08:07:52.410Z,56.4
2022-08-09T08:09:08.679Z,55.1
2022-08-09T08:10:24.905Z,56.8
2022-08-09T08:11:41.129Z,55
2022-08-09T08:12:57.368Z,56.3
2022-08-09T08:14:13.607Z,58.4
2022-08-09T08:15:29.882Z,56.2
2022-08-09T08:16:46.085Z,53.9
2022-08-09T08:18:02.332Z,53.9
2022-08-09T08:19:18.576Z,52.9
2022-08-09T08:20:33.829Z,52.9
2022-08-09T08:21:50.069Z,53.3
2022-08-09T08:23:06.308Z,52.4
2022-08-09T08:24:22.575Z,52.7
2022-08-09T08:25:38.822Z,51.5
2022-08-09T08:26:55.038Z,51.5
2022-08-09T08:28:10.293Z,50.7
2022-08-09T08:29:26.528Z,51.6
2022-08-09T08:30:42.771Z,51.9
2022-08-09T08:31:59.031Z,51.5
2022-08-09T08:33:15.257Z,50.1
2022-08-09T08:34:31.499Z,52
2022-08-09T08:35:47.725Z,52
2022-08-09T08:37:03.969Z,50.3
2022-08-09T08:38:20.221Z,50.9
2022-08-09T08:39:36.453Z,50.8
2022-08-09T08:40:52.700Z,50.6
2022-08-09T08:42:08.924Z,51.5
2022-08-09T08:43:25.179Z,50.1
2022-08-09T08:45:56.676Z,51
2022-08-09T08:47:12.908Z,51
2022-08-09T08:48:29.158Z,50.9
2022-08-09T08:49:45.395Z,50.3
2022-08-09T08:51:01.626Z,49.9
2022-08-09T08:52:17.866Z,49.7
2022-08-09T08:53:34.106Z,49.7
2022-08-09T08:54:50.342Z,48.5
2022-08-09T08:56:06.593Z,47.9
2022-08-09T08:57:22.826Z,48.1
2022-08-09T08:58:39.073Z,47.7
2022-08-09T08:59:55.311Z,47.2
2022-08-09T09:01:10.572Z,47.6
2022-08-09T09:02:26.809Z,47.2
2022-08-09T09:03:43.059Z,47.1
2022-08-09T09:04:59.299Z,46.9
2022-08-09T09:06:15.524Z,46.7
2022-08-09T09:07:31.769Z,47.7
2022-08-09T09:08:48.004Z,51.2
2022-08-09T09:10:04.243Z,48.1
2022-08-09T09:11:20.485Z,47.4
2022-08-09T09:12:36.738Z,46
2022-08-09T09:13:52.965Z,45.1
2022-08-09T09:15:09.210Z,46.5
2022-08-09T09:16:25.459Z,44.1
2022-08-09T09:17:40.700Z,43.8
2022-08-09T09:18:56.939Z,44.2
2022-08-09T09:20:13.181Z,44.4
2022-08-09T09:21:29.422Z,43.9
2022-08-09T09:22:45.670Z,43.5
2022-08-09T09:24:01.906Z,45.9
2022-08-09T09:25:18.143Z,45.4
2022-08-09T09:26:34.393Z,43.4
2022-08-09T09:27:50.634Z,45.5
2022-08-09T09:29:06.860Z,43.8
2022-08-09T09:30:23.101Z,41.8
2022-08-09T09:31:39.353Z,42.2
2022-08-09T09:32:55.577Z,41.6
2022-08-09T09:34:10.841Z,41.2
2022-08-09T09:35:27.079Z,42.8
2022-08-09T09:36:43.316Z,43.6
2022-08-09T09:37:59.570Z,44.3
2022-08-09T09:39:15.790Z,44.1
2022-08-09T09:40:32.030Z,40.9
2022-08-09T09:41:48.280Z,40.8
2022-08-09T09:43:04.509Z,41.4
2022-08-09T09:44:20.754Z,40.3
2022-08-09T09:45:36.997Z,40.8
2022-08-09T09:46:53.235Z,41.2
2022-08-09T09:48:09.480Z,43.2
2022-08-09T09:49:25.706Z,40.3
2022-08-09T09:50:40.964Z,40.2
2022-08-09T09:51:57.220Z,39.6
2022-08-09T09:53:13.444Z,42.3
2022-08-09T09:54:29.697Z,39.6
2022-08-09T09:55:45.917Z,41.9
2022-08-09T09:57:02.176Z,40.8
2022-08-09T09:58:18.416Z,38.4
2022-08-09T09:59:34.645Z,38.5
2022-08-09T10:00:50.879Z,39.6
2022-08-09T10:02:07.116Z,38.6
2022-08-09T10:03:23.355Z,37.7
2022-08-09T10:04:39.600Z,37.6
2022-08-09T10:05:55.832Z,38.4
2022-08-09T10:07:11.087Z,39
2022-08-09T10:08:27.327Z,37.9
2022-08-09T10:09:43.574Z,38.5
2022-08-09T10:10:59.805Z,37.1
2022-08-09T10:12:16.044Z,38
2022-08-09T10:13:32.299Z,38.2
2022-08-09T10:14:48.538Z,37.5
2022-08-09T10:16:04.761Z,36.9
2022-08-09T10:17:21.006Z,38.1
2022-08-09T10:18:37.244Z,37.7
2022-08-09T10:19:53.494Z,38
2022-08-09T10:21:09.736Z,37.5
2022-08-09T10:22:25.967Z,36.7
2022-08-09T10:23:41.213Z,36.5
2022-08-09T10:24:57.453Z,36.5
2022-08-09T10:26:13.688Z,36.8
2022-08-09T10:27:29.930Z,36.4
2022-08-09T10:28:46.171Z,35.9
2022-08-09T10:30:02.406Z,36.1
2022-08-09T10:31:18.649Z,36.7
2022-08-09T10:32:34.888Z,38.8
2022-08-09T10:33:51.121Z,36.5
2022-08-09T10:35:07.357Z,35.3
2022-08-09T10:36:23.602Z,34.9
2022-08-09T10:37:39.844Z,35.1
2022-08-09T10:38:56.088Z,34.8
2022-08-09T10:40:11.328Z,35.7
2022-08-09T10:41:27.581Z,36.9
2022-08-09T10:42:43.802Z,35.6
2022-08-09T10:44:00.048Z,34.9
2022-08-09T10:45:16.289Z,35.3
2022-08-09T10:46:32.523Z,36.5
2022-08-09T10:47:48.765Z,35.8
2022-08-09T10:49:05.000Z,34.3
2022-08-09T10:50:21.243Z,34
2022-08-09T10:51:37.476Z,34.7
2022-08-09T10:52:53.716Z,34.8
2022-08-09T10:54:09.966Z,34.3
2022-08-09T10:55:26.190Z,34.6
2022-08-09T10:56:41.459Z,34.8
2022-08-09T10:57:57.692Z,35.6
2022-08-09T10:59:13.928Z,36.6
2022-08-09T11:00:30.163Z,34.7
2022-08-09T11:01:46.409Z,35.6
2022-08-09T11:03:02.645Z,35.6
2022-08-09T11:04:18.890Z,36.3
2022-08-09T11:05:35.122Z,35.4
2022-08-09T11:06:51.370Z,35.9
2022-08-09T11:08:07.608Z,36.6
2022-08-09T11:09:23.835Z,36.1
2022-08-09T11:10:40.080Z,35.5
2022-08-09T11:11:56.325Z,35.5
2022-08-09T11:13:11.564Z,36
2022-08-09T11:14:27.818Z,37.6
2022-08-09T11:15:44.059Z,35.8
2022-08-09T11:17:00.299Z,36.1
2022-08-09T11:18:16.525Z,36.1
2022-08-09T11:19:32.767Z,36.8
2022-08-09T11:20:49.010Z,37.2
2022-08-09T11:22:05.238Z,36.9
2022-08-09T11:23:21.479Z,35.2
2022-08-09T11:24:37.724Z,36.4
2022-08-09T11:25:53.967Z,34.8
2022-08-09T11:27:10.201Z,35.2
2022-08-09T11:28:26.434Z,35.8
2022-08-09T11:29:41.694Z,35.6
2022-08-09T11:30:57.936Z,36.3
2022-08-09T11:32:14.182Z,35
2022-08-09T11:33:30.412Z,34.6
2022-08-09T11:34:46.644Z,35.6
2022-08-09T11:36:02.888Z,34.3
2022-08-09T11:37:19.126Z,34.9
2022-08-09T11:38:35.372Z,38.5
2022-08-09T11:39:51.604Z,34.9
2022-08-09T11:41:07.849Z,36
2022-08-09T11:42:24.090Z,36.5
2022-08-09T11:43:40.338Z,36.7
2022-08-09T11:44:56.558Z,36.7
2022-08-09T11:46:11.831Z,36.7
2022-08-09T11:47:28.070Z,38
2022-08-09T11:48:44.301Z,37.1
2022-08-09T11:50:00.540Z,37.9
2022-08-09T11:51:16.787Z,37.5
2022-08-09T11:52:33.009Z,38.3
2022-08-09T11:53:49.250Z,39.8
2022-08-09T11:55:05.506Z,39.4
2022-08-09T11:56:21.741Z,38.9
2022-08-09T11:57:37.977Z,36.7
2022-08-09T11:58:54.213Z,38.2
2022-08-09T12:00:10.461Z,38.2
2022-08-09T12:01:26.686Z,37.2
2022-08-09T12:02:41.955Z,37.1
2022-08-09T12:03:58.190Z,36.3
2022-08-09T12:05:14.419Z,36.9
2022-08-09T12:06:30.664Z,37.4
2022-08-09T12:07:46.911Z,36.2
2022-08-09T12:09:03.135Z,34.8
2022-08-09T12:10:19.378Z,34.3
2022-08-09T12:11:35.610Z,34.2
2022-08-09T12:12:51.855Z,32.4
2022-08-09T12:14:08.107Z,31.8
2022-08-09T12:15:24.329Z,31.9
2022-08-09T12:16:40.578Z,30.8
2022-08-09T12:17:56.809Z,30.8
2022-08-09T12:19:12.067Z,30.9
2022-08-09T12:20:28.319Z,31
2022-08-09T12:21:44.545Z,31.4
2022-08-09T12:23:00.794Z,30.9
2022-08-09T12:24:17.037Z,31.5
2022-08-09T12:25:33.268Z,33.2
2022-08-09T12:26:49.509Z,32.5
2022-08-09T12:28:05.743Z,36.7
2022-08-09T12:29:21.980Z,35.3
2022-08-09T12:30:38.224Z,36.2
2022-08-09T12:31:54.460Z,34.1
2022-08-09T12:33:10.715Z,35.6
2022-08-09T12:34:26.948Z,34.8
2022-08-09T12:35:42.194Z,36.1
2022-08-09T12:36:58.432Z,36.8
2022-08-09T12:38:14.686Z,35
2022-08-09T12:39:30.910Z,35.4
2022-08-09T12:40:47.154Z,35.7
2022-08-09T12:42:03.389Z,37.2
2022-08-09T12:43:18.662Z,37.9
2022-08-09T12:44:34.894Z,36.9
2022-08-09T12:45:51.130Z,36
2022-08-09T12:47:07.375Z,37.6
2022-08-09T12:49:39.847Z,37.5
2022-08-09T12:50:56.090Z,38.3
2022-08-09T12:52:12.328Z,36
2022-08-09T12:53:28.564Z,37.1
2022-08-09T12:54:44.815Z,34.7
2022-08-09T12:56:01.042Z,33.6
2022-08-09T12:57:17.291Z,36.5
2022-08-09T12:58:33.516Z,33
2022-08-09T12:59:48.777Z,31.6
2022-08-09T13:01:05.026Z,31.3
2022-08-09T13:02:21.249Z,32.5
2022-08-09T13:03:37.497Z,32.8
2022-08-09T13:04:53.740Z,34
2022-08-09T13:06:09.983Z,33.5
2022-08-09T13:07:26.208Z,32.2
2022-08-09T13:08:42.463Z,31.9
2022-08-09T13:09:58.688Z,30
2022-08-09T13:11:14.937Z,29.8
2022-08-09T13:12:31.182Z,29.5
2022-08-09T13:13:47.413Z,30.2
2022-08-09T13:15:03.655Z,30.5
2022-08-09T13:16:18.909Z,29.1
2022-08-09T13:17:35.151Z,29.4
2022-08-09T13:20:07.639Z,29.5
2022-08-09T13:21:23.869Z,30.3
2022-08-09T13:22:40.122Z,30.5
2022-08-09T13:23:56.351Z,29.9
2022-08-09T13:25:12.587Z,30.6
2022-08-09T13:26:28.831Z,30.5
2022-08-09T13:27:45.068Z,30.9
2022-08-09T13:29:01.305Z,32.2
2022-08-09T13:30:17.546Z,34.3
2022-08-09T13:31:33.790Z,33.4
2022-08-09T13:32:49.056Z,34.2
2022-08-09T13:34:05.282Z,33.6
2022-08-09T13:35:21.530Z,35.2
2022-08-09T13:36:37.767Z,33.7
2022-08-09T13:37:54.010Z,33.9
2022-08-09T13:39:10.252Z,32.8
2022-08-09T13:40:26.492Z,34
2022-08-09T13:41:42.733Z,34
2022-08-09T13:42:58.970Z,33.9
2022-08-09T13:44:15.203Z,33.9
2022-08-09T13:45:31.456Z,34.3
2022-08-09T13:46:47.689Z,34
2022-08-09T13:48:03.935Z,34.8
2022-08-09T13:49:19.184Z,34.2
2022-08-09T13:50:35.434Z,35.5
2022-08-09T13:51:51.656Z,35.1
2022-08-09T13:53:07.907Z,35.3
2022-08-09T13:54:24.137Z,35.5
2022-08-09T13:55:40.392Z,35.4
2022-08-09T13:56:56.619Z,35.7
2022-08-09T13:58:12.865Z,36.9
2022-08-09T13:59:29.105Z,36.1
2022-08-09T14:00:45.338Z,35.7
2022-08-09T14:02:01.575Z,36.3
2022-08-09T14:03:17.825Z,35.8
2022-08-09T14:04:34.063Z,36.6
2022-08-09T14:05:49.306Z,36
2022-08-09T14:07:05.557Z,35.4
2022-08-09T14:08:21.788Z,36.3
2022-08-09T14:09:38.025Z,36.8
2022-08-09T14:10:54.263Z,36.7
2022-08-09T14:12:10.518Z,35.6
2022-08-09T14:13:26.744Z,35.1
2022-08-09T14:14:42.990Z,35
2022-08-09T14:15:59.242Z,34.9
2022-08-09T14:17:15.477Z,35.2
2022-08-09T14:18:31.719Z,35.2
2022-08-09T14:19:47.947Z,35.8
2022-08-09T14:21:04.179Z,36
2022-08-09T14:22:19.457Z,35
2022-08-09T14:23:35.694Z,34.4
2022-08-09T14:24:51.928Z,34.8
2022-08-09T14:26:08.167Z,34.9
2022-08-09T14:27:24.393Z,34
2022-08-09T14:28:40.639Z,33.1
2022-08-09T14:29:56.885Z,33
2022-08-09T14:31:13.122Z,33.1
2022-08-09T14:32:29.367Z,32.3
2022-08-09T14:33:45.603Z,31.5
2022-08-09T14:35:01.833Z,31.1
2022-08-09T14:36:18.083Z,30.5
2022-08-09T14:37:34.316Z,30.7
2022-08-09T14:38:49.580Z,30.9
2022-08-09T14:40:05.820Z,30.8
2022-08-09T14:41:22.046Z,31.1
2022-08-09T14:42:38.289Z,30.8
2022-08-09T14:43:54.543Z,30.4
2022-08-09T14:45:10.765Z,30.1
2022-08-09T14:46:27.018Z,30.6
2022-08-09T14:47:43.260Z,31.2
2022-08-09T14:48:59.500Z,31.6
2022-08-09T14:50:15.732Z,30.5
2022-08-09T14:51:31.971Z,30.1
2022-08-09T14:52:48.220Z,29.9
2022-08-09T14:54:04.457Z,29.9
2022-08-09T14:55:19.717Z,30.9
2022-08-09T14:56:35.954Z,29.6
2022-08-09T14:57:52.193Z,29.2
2022-08-09T14:59:08.430Z,29
2022-08-09T15:00:24.678Z,29.2
2022-08-09T15:01:40.916Z,30.2
2022-08-09T15:02:57.151Z,29.5
2022-08-09T15:04:13.387Z,30
2022-08-09T15:05:29.629Z,29.5
2022-08-09T15:06:45.866Z,30.8
2022-08-09T15:08:02.123Z,30.1
2022-08-09T15:09:18.356Z,30.1
2022-08-09T15:10:34.596Z,30.3
2022-08-09T15:11:49.848Z,30.1
2022-08-09T15:13:06.093Z,29.1
2022-08-09T15:14:22.323Z,28.8
2022-08-09T15:15:38.567Z,29.1
2022-08-09T15:16:54.815Z,29.7
2022-08-09T15:18:11.057Z,29.6
2022-08-09T15:19:27.289Z,29.8
2022-08-09T15:20:43.526Z,30.1
2022-08-09T15:21:59.773Z,30.9
2022-08-09T15:23:16.017Z,31
2022-08-09T15:24:32.256Z,30.8
2022-08-09T15:25:48.481Z,30.6
2022-08-09T15:27:04.724Z,32.2
2022-08-09T15:28:19.994Z,30.2
2022-08-09T15:29:36.221Z,29.4
2022-08-09T15:30:52.471Z,30.6
2022-08-09T15:32:08.698Z,30.7
2022-08-09T15:33:24.934Z,30.4
2022-08-09T15:34:41.185Z,30
2022-08-09T15:35:57.422Z,30.7
2022-08-09T15:37:13.657Z,29.7
2022-08-09T15:38:29.901Z,31.8
2022-08-09T15:39:46.145Z,29.9
2022-08-09T15:41:02.375Z,30.9
2022-08-09T15:42:18.627Z,30.2
2022-08-09T15:43:34.858Z,32.2
2022-08-09T15:44:50.123Z,31.6
2022-08-09T15:46:06.355Z,29.6
2022-08-09T15:47:22.608Z,29.9
2022-08-09T15:48:38.847Z,31.2
2022-08-09T15:49:55.084Z,30.5
2022-08-09T15:51:11.316Z,30.2
2022-08-09T15:52:27.555Z,30.6
2022-08-09T15:53:43.805Z,31.8
2022-08-09T15:55:00.040Z,30.4
2022-08-09T15:56:16.285Z,30.6
2022-08-09T15:57:32.519Z,29.8
2022-08-09T15:58:48.755Z,30.4
2022-08-09T16:00:05.003Z,30.6
2022-08-09T16:01:20.263Z,29.2
2022-08-09T16:02:36.500Z,30.6
2022-08-09T16:03:52.743Z,29.7
2022-08-09T16:05:08.968Z,29
2022-08-09T16:06:25.219Z,29.8
2022-08-09T16:07:41.443Z,30.2
2022-08-09T16:08:57.696Z,30.3
2022-08-09T16:10:13.925Z,31.5
2022-08-09T16:11:30.181Z,31.7
2022-08-09T16:12:46.410Z,31.7
2022-08-09T16:14:02.653Z,33.1
2022-08-09T16:15:18.881Z,32.9
2022-08-09T16:16:35.131Z,31.8
2022-08-09T16:17:50.385Z,31.5
2022-08-09T16:19:06.623Z,32.3
2022-08-09T16:20:22.877Z,32.2
2022-08-09T16:21:39.107Z,32.9
2022-08-09T16:22:55.355Z,32.6
2022-08-09T16:24:11.578Z,32.5
2022-08-09T16:25:27.824Z,32.2
2022-08-09T16:26:44.069Z,32.4
2022-08-09T16:28:00.313Z,32.2
2022-08-09T16:29:16.543Z,33.1
2022-08-09T16:30:32.798Z,32.8
2022-08-09T16:31:49.034Z,32.5
2022-08-09T16:33:05.260Z,31.6
2022-08-09T16:34:20.514Z,32.9
2022-08-09T16:35:36.763Z,32.5
2022-08-09T16:36:52.995Z,33.3
2022-08-09T16:38:09.255Z,33.8
2022-08-09T16:39:25.490Z,33.1
2022-08-09T16:40:41.728Z,32.9
2022-08-09T16:41:57.965Z,32.7
2022-08-09T16:43:14.203Z,32.3
2022-08-09T16:44:30.447Z,32
2022-08-09T16:45:46.695Z,31.6
2022-08-09T16:47:02.932Z,30.7
2022-08-09T16:48:19.168Z,31.7
2022-08-09T16:49:35.398Z,30.3
2022-08-09T16:50:50.661Z,29.9
2022-08-09T16:52:06.905Z,29.8
2022-08-09T16:53:23.145Z,30.2
2022-08-09T16:54:39.383Z,30.4
2022-08-09T16:55:55.614Z,30.7
2022-08-09T16:57:11.853Z,31
2022-08-09T16:58:27.127Z,30.3
2022-08-09T16:59:43.365Z,30.7
2022-08-09T17:00:59.594Z,31.4
2022-08-09T17:02:15.834Z,31
2022-08-09T17:03:32.082Z,31